sensor_id;sensor_type;location;lat;lon;timestamp;P1;durP1;ratioP1;P2;durP2;ratioP2
79533;SDS011;68982;52.160;6.736;2023-04-15T00:00:27;10.00;;;4.15;;
79533;SDS011;68982;52.160;6.736;2023-04-15T00:02:53;6.70;;;4.43;;
79533;SDS011;68982;52.160;6.736;2023-04-15T00:05:19;6.07;;;4.65;;
79533;SDS011;68982;52.160;6.736;2023-04-15T00:07:44;9.18;;;4.68;;
79533;SDS011;68982;52.160;6.736;2023-04-15T00:10:11;7.88;;;4.53;;
79533;SDS011;68982;52.160;6.736;2023-04-15T00:12:36;7.55;;;4.57;;
79533;SDS011;68982;52.160;6.736;2023-04-15T00:15:02;8.43;;;5.00;;
79533;SDS011;68982;52.160;6.736;2023-04-15T00:17:28;7.60;;;4.63;;
79533;SDS011;68982;52.160;6.736;2023-04-15T00:19:53;7.47;;;4.55;;
79533;SDS011;68982;52.160;6.736;2023-04-15T00:22:19;7.20;;;4.85;;
79533;SDS011;68982;52.160;6.736;2023-04-15T00:24:44;10.85;;;5.57;;
79533;SDS011;68982;52.160;6.736;2023-04-15T00:27:10;7.53;;;4.78;;
79533;SDS011;68982;52.160;6.736;2023-04-15T00:29:35;6.90;;;4.78;;
79533;SDS011;68982;52.160;6.736;2023-04-15T00:32:01;8.38;;;4.82;;
79533;SDS011;68982;52.160;6.736;2023-04-15T00:34:26;6.85;;;4.80;;
79533;SDS011;68982;52.160;6.736;2023-04-15T00:36:52;7.32;;;5.15;;
79533;SDS011;68982;52.160;6.736;2023-04-15T00:39:18;10.23;;;4.85;;
79533;SDS011;68982;52.160;6.736;2023-04-15T00:41:43;7.55;;;4.78;;
79533;SDS011;68982;52.160;6.736;2023-04-15T00:44:10;6.40;;;4.35;;
79533;SDS011;68982;52.160;6.736;2023-04-15T00:46:35;10.43;;;5.35;;
79533;SDS011;68982;52.160;6.736;2023-04-15T00:49:05;7.82;;;4.72;;
79533;SDS011;68982;52.160;6.736;2023-04-15T00:51:32;10.02;;;5.13;;
79533;SDS011;68982;52.160;6.736;2023-04-15T00:54:00;10.77;;;5.57;;
79533;SDS011;68982;52.160;6.736;2023-04-15T00:56:26;6.43;;;4.57;;
79533;SDS011;68982;52.160;6.736;2023-04-15T00:58:53;7.63;;;5.07;;
79533;SDS011;68982;52.160;6.736;2023-04-15T01:01:22;9.82;;;5.30;;
79533;SDS011;68982;52.160;6.736;2023-04-15T01:03:50;12.10;;;5.47;;
79533;SDS011;68982;52.160;6.736;2023-04-15T01:06:16;10.00;;;5.13;;
79533;SDS011;68982;52.160;6.736;2023-04-15T01:08:42;8.07;;;5.55;;
79533;SDS011;68982;52.160;6.736;2023-04-15T01:11:08;7.15;;;5.30;;
79533;SDS011;68982;52.160;6.736;2023-04-15T01:13:34;8.25;;;5.93;;
79533;SDS011;68982;52.160;6.736;2023-04-15T01:16:00;7.47;;;5.40;;
79533;SDS011;68982;52.160;6.736;2023-04-15T01:18:27;7.75;;;5.15;;
79533;SDS011;68982;52.160;6.736;2023-04-15T01:20:53;7.28;;;4.95;;
79533;SDS011;68982;52.160;6.736;2023-04-15T01:23:19;7.78;;;5.18;;
79533;SDS011;68982;52.160;6.736;2023-04-15T01:25:46;6.72;;;4.97;;
79533;SDS011;68982;52.160;6.736;2023-04-15T01:28:13;6.43;;;4.82;;
79533;SDS011;68982;52.160;6.736;2023-04-15T01:30:38;7.43;;;5.00;;
79533;SDS011;68982;52.160;6.736;2023-04-15T01:33:04;8.53;;;5.80;;
79533;SDS011;68982;52.160;6.736;2023-04-15T01:35:29;7.72;;;5.40;;
79533;SDS011;68982;52.160;6.736;2023-04-15T01:37:54;8.55;;;5.32;;
79533;SDS011;68982;52.160;6.736;2023-04-15T01:40:28;10.00;;;6.75;;
79533;SDS011;68982;52.160;6.736;2023-04-15T01:42:54;6.97;;;5.65;;
79533;SDS011;68982;52.160;6.736;2023-04-15T01:45:20;7.90;;;5.40;;
79533;SDS011;68982;52.160;6.736;2023-04-15T01:47:45;10.52;;;5.60;;
79533;SDS011;68982;52.160;6.736;2023-04-15T01:50:11;10.38;;;5.95;;
79533;SDS011;68982;52.160;6.736;2023-04-15T01:52:37;9.07;;;5.28;;
79533;SDS011;68982;52.160;6.736;2023-04-15T01:55:02;8.63;;;5.53;;
79533;SDS011;68982;52.160;6.736;2023-04-15T01:57:28;7.47;;;5.57;;
79533;SDS011;68982;52.160;6.736;2023-04-15T01:59:53;7.50;;;5.67;;
79533;SDS011;68982;52.160;6.736;2023-04-15T02:02:18;7.53;;;5.57;;
79533;SDS011;68982;52.160;6.736;2023-04-15T02:04:44;8.27;;;5.15;;
79533;SDS011;68982;52.160;6.736;2023-04-15T02:07:09;9.63;;;5.43;;
79533;SDS011;68982;52.160;6.736;2023-04-15T02:09:35;7.07;;;5.13;;
79533;SDS011;68982;52.160;6.736;2023-04-15T02:12:00;7.87;;;5.20;;
79533;SDS011;68982;52.160;6.736;2023-04-15T02:14:25;8.10;;;5.55;;
79533;SDS011;68982;52.160;6.736;2023-04-15T02:16:51;9.13;;;5.45;;
79533;SDS011;68982;52.160;6.736;2023-04-15T02:19:16;8.03;;;5.37;;
79533;SDS011;68982;52.160;6.736;2023-04-15T02:21:42;7.78;;;5.32;;
79533;SDS011;68982;52.160;6.736;2023-04-15T02:24:07;10.70;;;6.25;;
79533;SDS011;68982;52.160;6.736;2023-04-15T02:26:33;8.73;;;6.07;;
79533;SDS011;68982;52.160;6.736;2023-04-15T02:28:58;8.73;;;5.35;;
79533;SDS011;68982;52.160;6.736;2023-04-15T02:31:24;12.32;;;5.18;;
79533;SDS011;68982;52.160;6.736;2023-04-15T02:33:50;7.45;;;5.40;;
79533;SDS011;68982;52.160;6.736;2023-04-15T02:36:15;9.25;;;5.78;;
79533;SDS011;68982;52.160;6.736;2023-04-15T02:38:40;9.38;;;5.60;;
79533;SDS011;68982;52.160;6.736;2023-04-15T02:41:07;10.45;;;6.13;;
79533;SDS011;68982;52.160;6.736;2023-04-15T02:43:34;8.82;;;6.75;;
79533;SDS011;68982;52.160;6.736;2023-04-15T02:45:59;8.02;;;5.68;;
79533;SDS011;68982;52.160;6.736;2023-04-15T02:48:25;8.83;;;6.13;;
79533;SDS011;68982;52.160;6.736;2023-04-15T02:50:50;8.25;;;5.40;;
79533;SDS011;68982;52.160;6.736;2023-04-15T02:53:16;10.87;;;6.20;;
79533;SDS011;68982;52.160;6.736;2023-04-15T02:55:41;9.27;;;5.65;;
79533;SDS011;68982;52.160;6.736;2023-04-15T02:58:07;7.75;;;5.95;;
79533;SDS011;68982;52.160;6.736;2023-04-15T03:00:32;9.95;;;5.88;;
79533;SDS011;68982;52.160;6.736;2023-04-15T03:02:59;8.02;;;5.97;;
79533;SDS011;68982;52.160;6.736;2023-04-15T03:05:29;8.90;;;6.13;;
79533;SDS011;68982;52.160;6.736;2023-04-15T03:07:54;9.05;;;5.85;;
79533;SDS011;68982;52.160;6.736;2023-04-15T03:10:20;10.00;;;6.55;;
79533;SDS011;68982;52.160;6.736;2023-04-15T03:12:46;10.95;;;6.60;;
79533;SDS011;68982;52.160;6.736;2023-04-15T03:15:11;10.00;;;6.78;;
79533;SDS011;68982;52.160;6.736;2023-04-15T03:17:37;9.30;;;6.25;;
79533;SDS011;68982;52.160;6.736;2023-04-15T03:20:02;10.07;;;6.95;;
79533;SDS011;68982;52.160;6.736;2023-04-15T03:22:29;9.15;;;6.38;;
79533;SDS011;68982;52.160;6.736;2023-04-15T03:24:55;11.00;;;6.95;;
79533;SDS011;68982;52.160;6.736;2023-04-15T03:27:21;9.13;;;6.72;;
79533;SDS011;68982;52.160;6.736;2023-04-15T03:29:46;10.20;;;7.10;;
79533;SDS011;68982;52.160;6.736;2023-04-15T03:32:12;11.77;;;6.80;;
79533;SDS011;68982;52.160;6.736;2023-04-15T03:34:39;8.60;;;6.47;;
79533;SDS011;68982;52.160;6.736;2023-04-15T03:37:05;10.25;;;6.32;;
79533;SDS011;68982;52.160;6.736;2023-04-15T03:39:30;9.50;;;6.57;;
79533;SDS011;68982;52.160;6.736;2023-04-15T03:41:56;9.68;;;6.90;;
79533;SDS011;68982;52.160;6.736;2023-04-15T03:44:21;11.50;;;7.45;;
79533;SDS011;68982;52.160;6.736;2023-04-15T03:46:47;12.23;;;7.03;;
79533;SDS011;68982;52.160;6.736;2023-04-15T03:49:12;11.95;;;6.85;;
79533;SDS011;68982;52.160;6.736;2023-04-15T03:51:38;12.00;;;6.75;;
79533;SDS011;68982;52.160;6.736;2023-04-15T03:54:03;11.50;;;7.53;;
79533;SDS011;68982;52.160;6.736;2023-04-15T03:56:28;11.48;;;7.18;;
79533;SDS011;68982;52.160;6.736;2023-04-15T03:58:54;11.27;;;7.30;;
79533;SDS011;68982;52.160;6.736;2023-04-15T04:01:20;10.63;;;7.25;;
79533;SDS011;68982;52.160;6.736;2023-04-15T04:03:45;10.90;;;6.85;;
79533;SDS011;68982;52.160;6.736;2023-04-15T04:06:10;10.95;;;7.68;;
79533;SDS011;68982;52.160;6.736;2023-04-15T04:08:36;10.43;;;7.20;;
79533;SDS011;68982;52.160;6.736;2023-04-15T04:11:02;10.20;;;6.57;;
79533;SDS011;68982;52.160;6.736;2023-04-15T04:13:27;11.63;;;7.63;;
79533;SDS011;68982;52.160;6.736;2023-04-15T04:15:53;11.80;;;7.30;;
79533;SDS011;68982;52.160;6.736;2023-04-15T04:18:18;10.67;;;7.13;;
79533;SDS011;68982;52.160;6.736;2023-04-15T04:20:43;10.63;;;7.00;;
79533;SDS011;68982;52.160;6.736;2023-04-15T04:23:09;11.88;;;8.05;;
79533;SDS011;68982;52.160;6.736;2023-04-15T04:25:34;11.20;;;7.50;;
79533;SDS011;68982;52.160;6.736;2023-04-15T04:27:59;12.00;;;7.83;;
79533;SDS011;68982;52.160;6.736;2023-04-15T04:30:25;10.80;;;7.45;;
79533;SDS011;68982;52.160;6.736;2023-04-15T04:32:50;11.07;;;7.55;;
79533;SDS011;68982;52.160;6.736;2023-04-15T04:35:15;11.73;;;7.80;;
79533;SDS011;68982;52.160;6.736;2023-04-15T04:37:41;11.73;;;7.65;;
79533;SDS011;68982;52.160;6.736;2023-04-15T04:40:07;11.40;;;7.03;;
79533;SDS011;68982;52.160;6.736;2023-04-15T04:42:33;14.35;;;7.40;;
79533;SDS011;68982;52.160;6.736;2023-04-15T04:44:58;11.30;;;7.20;;
79533;SDS011;68982;52.160;6.736;2023-04-15T04:47:24;11.40;;;7.77;;
79533;SDS011;68982;52.160;6.736;2023-04-15T04:49:49;12.15;;;7.57;;
79533;SDS011;68982;52.160;6.736;2023-04-15T04:52:15;11.75;;;7.63;;
79533;SDS011;68982;52.160;6.736;2023-04-15T04:54:40;12.98;;;7.97;;
79533;SDS011;68982;52.160;6.736;2023-04-15T04:57:06;13.38;;;8.80;;
79533;SDS011;68982;52.160;6.736;2023-04-15T04:59:32;11.02;;;7.63;;
79533;SDS011;68982;52.160;6.736;2023-04-15T05:01:57;12.75;;;7.03;;
79533;SDS011;68982;52.160;6.736;2023-04-15T05:04:22;12.05;;;8.25;;
79533;SDS011;68982;52.160;6.736;2023-04-15T05:06:48;15.23;;;8.20;;
79533;SDS011;68982;52.160;6.736;2023-04-15T05:09:13;11.32;;;7.53;;
79533;SDS011;68982;52.160;6.736;2023-04-15T05:11:38;11.48;;;7.63;;
79533;SDS011;68982;52.160;6.736;2023-04-15T05:14:04;12.27;;;8.13;;
79533;SDS011;68982;52.160;6.736;2023-04-15T05:16:29;13.37;;;9.13;;
79533;SDS011;68982;52.160;6.736;2023-04-15T05:18:55;16.77;;;9.87;;
79533;SDS011;68982;52.160;6.736;2023-04-15T05:21:20;16.38;;;10.85;;
79533;SDS011;68982;52.160;6.736;2023-04-15T05:23:46;13.57;;;9.93;;
79533;SDS011;68982;52.160;6.736;2023-04-15T05:26:11;13.25;;;9.07;;
79533;SDS011;68982;52.160;6.736;2023-04-15T05:28:37;15.20;;;9.40;;
79533;SDS011;68982;52.160;6.736;2023-04-15T05:31:02;14.30;;;10.07;;
79533;SDS011;68982;52.160;6.736;2023-04-15T05:33:28;15.40;;;9.75;;
79533;SDS011;68982;52.160;6.736;2023-04-15T05:35:53;16.52;;;10.02;;
79533;SDS011;68982;52.160;6.736;2023-04-15T05:38:18;14.40;;;9.13;;
79533;SDS011;68982;52.160;6.736;2023-04-15T05:40:44;10.77;;;8.17;;
79533;SDS011;68982;52.160;6.736;2023-04-15T05:43:09;12.50;;;8.27;;
79533;SDS011;68982;52.160;6.736;2023-04-15T05:45:34;14.27;;;9.45;;
79533;SDS011;68982;52.160;6.736;2023-04-15T05:48:00;11.90;;;8.82;;
79533;SDS011;68982;52.160;6.736;2023-04-15T05:50:25;11.17;;;7.93;;
79533;SDS011;68982;52.160;6.736;2023-04-15T05:52:51;13.63;;;8.30;;
79533;SDS011;68982;52.160;6.736;2023-04-15T05:55:16;12.52;;;8.00;;
79533;SDS011;68982;52.160;6.736;2023-04-15T05:57:41;12.37;;;7.97;;
79533;SDS011;68982;52.160;6.736;2023-04-15T06:00:07;14.93;;;9.50;;
79533;SDS011;68982;52.160;6.736;2023-04-15T06:02:33;12.93;;;8.95;;
79533;SDS011;68982;52.160;6.736;2023-04-15T06:04:58;12.90;;;8.73;;
79533;SDS011;68982;52.160;6.736;2023-04-15T06:07:24;14.40;;;8.75;;
79533;SDS011;68982;52.160;6.736;2023-04-15T06:09:50;15.40;;;9.57;;
79533;SDS011;68982;52.160;6.736;2023-04-15T06:12:15;16.55;;;9.50;;
79533;SDS011;68982;52.160;6.736;2023-04-15T06:14:41;14.50;;;9.60;;
79533;SDS011;68982;52.160;6.736;2023-04-15T06:17:06;16.08;;;10.23;;
79533;SDS011;68982;52.160;6.736;2023-04-15T06:19:32;16.77;;;10.68;;
79533;SDS011;68982;52.160;6.736;2023-04-15T06:21:58;15.98;;;10.98;;
79533;SDS011;68982;52.160;6.736;2023-04-15T06:24:24;16.35;;;10.80;;
79533;SDS011;68982;52.160;6.736;2023-04-15T06:26:49;17.92;;;10.25;;
79533;SDS011;68982;52.160;6.736;2023-04-15T06:29:15;16.77;;;10.43;;
79533;SDS011;68982;52.160;6.736;2023-04-15T06:31:40;16.13;;;10.57;;
79533;SDS011;68982;52.160;6.736;2023-04-15T06:34:05;16.30;;;10.40;;
79533;SDS011;68982;52.160;6.736;2023-04-15T06:36:31;18.08;;;9.98;;
79533;SDS011;68982;52.160;6.736;2023-04-15T06:38:56;19.40;;;10.02;;
79533;SDS011;68982;52.160;6.736;2023-04-15T06:41:22;15.88;;;10.25;;
79533;SDS011;68982;52.160;6.736;2023-04-15T06:43:47;16.75;;;10.30;;
79533;SDS011;68982;52.160;6.736;2023-04-15T06:46:13;16.27;;;10.00;;
79533;SDS011;68982;52.160;6.736;2023-04-15T06:48:38;14.48;;;9.48;;
79533;SDS011;68982;52.160;6.736;2023-04-15T06:51:04;15.73;;;9.75;;
79533;SDS011;68982;52.160;6.736;2023-04-15T06:53:29;15.32;;;9.68;;
79533;SDS011;68982;52.160;6.736;2023-04-15T06:55:54;16.02;;;10.15;;
79533;SDS011;68982;52.160;6.736;2023-04-15T06:58:20;15.73;;;9.50;;
79533;SDS011;68982;52.160;6.736;2023-04-15T07:00:46;13.57;;;9.30;;
79533;SDS011;68982;52.160;6.736;2023-04-15T07:03:11;16.23;;;8.85;;
79533;SDS011;68982;52.160;6.736;2023-04-15T07:05:37;13.80;;;9.45;;
79533;SDS011;68982;52.160;6.736;2023-04-15T07:08:03;14.43;;;8.23;;
79533;SDS011;68982;52.160;6.736;2023-04-15T07:10:30;13.25;;;8.35;;
79533;SDS011;68982;52.160;6.736;2023-04-15T07:12:56;13.00;;;8.55;;
79533;SDS011;68982;52.160;6.736;2023-04-15T07:15:22;14.50;;;8.87;;
79533;SDS011;68982;52.160;6.736;2023-04-15T07:17:47;15.35;;;8.80;;
79533;SDS011;68982;52.160;6.736;2023-04-15T07:20:13;14.07;;;9.00;;
79533;SDS011;68982;52.160;6.736;2023-04-15T07:22:38;12.88;;;7.65;;
79533;SDS011;68982;52.160;6.736;2023-04-15T07:25:04;13.50;;;9.07;;
79533;SDS011;68982;52.160;6.736;2023-04-15T07:27:30;14.82;;;8.85;;
79533;SDS011;68982;52.160;6.736;2023-04-15T07:29:56;14.23;;;7.85;;
79533;SDS011;68982;52.160;6.736;2023-04-15T07:32:21;15.00;;;8.88;;
79533;SDS011;68982;52.160;6.736;2023-04-15T07:34:47;14.82;;;9.05;;
79533;SDS011;68982;52.160;6.736;2023-04-15T07:37:12;15.80;;;9.02;;
79533;SDS011;68982;52.160;6.736;2023-04-15T07:39:38;15.32;;;9.00;;
79533;SDS011;68982;52.160;6.736;2023-04-15T07:42:04;14.47;;;8.70;;
79533;SDS011;68982;52.160;6.736;2023-04-15T07:44:29;14.85;;;8.38;;
79533;SDS011;68982;52.160;6.736;2023-04-15T07:46:55;15.63;;;9.48;;
79533;SDS011;68982;52.160;6.736;2023-04-15T07:49:21;15.98;;;9.85;;
79533;SDS011;68982;52.160;6.736;2023-04-15T07:51:47;16.52;;;9.05;;
79533;SDS011;68982;52.160;6.736;2023-04-15T07:54:13;14.55;;;8.38;;
79533;SDS011;68982;52.160;6.736;2023-04-15T07:56:41;15.18;;;8.75;;
79533;SDS011;68982;52.160;6.736;2023-04-15T07:59:06;15.20;;;8.57;;
79533;SDS011;68982;52.160;6.736;2023-04-15T08:01:34;15.00;;;8.85;;
79533;SDS011;68982;52.160;6.736;2023-04-15T08:03:59;20.30;;;9.77;;
79533;SDS011;68982;52.160;6.736;2023-04-15T08:06:25;13.70;;;8.55;;
79533;SDS011;68982;52.160;6.736;2023-04-15T08:08:51;18.75;;;8.90;;
79533;SDS011;68982;52.160;6.736;2023-04-15T08:11:18;15.10;;;8.02;;
79533;SDS011;68982;52.160;6.736;2023-04-15T08:13:43;16.23;;;8.98;;
79533;SDS011;68982;52.160;6.736;2023-04-15T08:16:16;12.75;;;8.30;;
79533;SDS011;68982;52.160;6.736;2023-04-15T08:18:48;12.85;;;7.80;;
79533;SDS011;68982;52.160;6.736;2023-04-15T08:21:14;14.48;;;8.32;;
79533;SDS011;68982;52.160;6.736;2023-04-15T08:23:40;14.50;;;8.77;;
79533;SDS011;68982;52.160;6.736;2023-04-15T08:26:06;15.48;;;9.73;;
79533;SDS011;68982;52.160;6.736;2023-04-15T08:28:35;12.77;;;8.50;;
79533;SDS011;68982;52.160;6.736;2023-04-15T08:31:02;14.38;;;8.95;;
79533;SDS011;68982;52.160;6.736;2023-04-15T08:33:28;13.80;;;8.17;;
79533;SDS011;68982;52.160;6.736;2023-04-15T08:35:53;15.93;;;9.18;;
79533;SDS011;68982;52.160;6.736;2023-04-15T08:38:19;12.35;;;7.35;;
79533;SDS011;68982;52.160;6.736;2023-04-15T08:40:44;13.70;;;8.77;;
79533;SDS011;68982;52.160;6.736;2023-04-15T08:43:11;11.07;;;7.03;;
79533;SDS011;68982;52.160;6.736;2023-04-15T08:45:39;13.48;;;8.45;;
79533;SDS011;68982;52.160;6.736;2023-04-15T08:48:05;13.55;;;8.77;;
79533;SDS011;68982;52.160;6.736;2023-04-15T08:50:33;12.07;;;7.25;;
79533;SDS011;68982;52.160;6.736;2023-04-15T08:52:59;12.43;;;8.40;;
79533;SDS011;68982;52.160;6.736;2023-04-15T08:55:26;13.88;;;7.90;;
79533;SDS011;68982;52.160;6.736;2023-04-15T08:58:00;11.13;;;7.10;;
79533;SDS011;68982;52.160;6.736;2023-04-15T09:00:26;11.45;;;7.50;;
79533;SDS011;68982;52.160;6.736;2023-04-15T09:02:53;10.48;;;7.03;;
79533;SDS011;68982;52.160;6.736;2023-04-15T09:05:20;11.00;;;7.30;;
79533;SDS011;68982;52.160;6.736;2023-04-15T09:07:47;10.80;;;6.18;;
79533;SDS011;68982;52.160;6.736;2023-04-15T09:10:12;11.68;;;7.05;;
79533;SDS011;68982;52.160;6.736;2023-04-15T09:12:38;14.67;;;6.17;;
79533;SDS011;68982;52.160;6.736;2023-04-15T09:15:03;9.50;;;6.25;;
79533;SDS011;68982;52.160;6.736;2023-04-15T09:17:29;7.63;;;5.63;;
79533;SDS011;68982;52.160;6.736;2023-04-15T09:20:10;11.13;;;6.88;;
79533;SDS011;68982;52.160;6.736;2023-04-15T09:22:40;10.70;;;6.50;;
79533;SDS011;68982;52.160;6.736;2023-04-15T09:25:24;9.20;;;5.63;;
79533;SDS011;68982;52.160;6.736;2023-04-15T09:27:54;8.13;;;5.15;;
79533;SDS011;68982;52.160;6.736;2023-04-15T09:30:21;11.43;;;6.65;;
79533;SDS011;68982;52.160;6.736;2023-04-15T09:35:23;7.72;;;4.50;;
79533;SDS011;68982;52.160;6.736;2023-04-15T09:37:50;8.68;;;4.90;;
79533;SDS011;68982;52.160;6.736;2023-04-15T09:40:35;7.20;;;4.43;;
79533;SDS011;68982;52.160;6.736;2023-04-15T09:43:02;7.43;;;4.30;;
79533;SDS011;68982;52.160;6.736;2023-04-15T09:45:29;5.75;;;4.10;;
79533;SDS011;68982;52.160;6.736;2023-04-15T09:47:56;5.57;;;4.03;;
79533;SDS011;68982;52.160;6.736;2023-04-15T09:50:23;6.43;;;4.13;;
79533;SDS011;68982;52.160;6.736;2023-04-15T09:52:52;5.93;;;3.97;;
79533;SDS011;68982;52.160;6.736;2023-04-15T09:55:17;6.80;;;4.40;;
79533;SDS011;68982;52.160;6.736;2023-04-15T09:57:43;7.40;;;3.60;;
79533;SDS011;68982;52.160;6.736;2023-04-15T10:00:11;7.50;;;4.70;;
79533;SDS011;68982;52.160;6.736;2023-04-15T10:02:38;6.50;;;4.50;;
79533;SDS011;68982;52.160;6.736;2023-04-15T10:05:06;7.97;;;4.40;;
79533;SDS011;68982;52.160;6.736;2023-04-15T10:07:34;6.80;;;4.65;;
79533;SDS011;68982;52.160;6.736;2023-04-15T10:10:00;8.60;;;5.07;;
79533;SDS011;68982;52.160;6.736;2023-04-15T10:12:28;7.82;;;5.25;;
79533;SDS011;68982;52.160;6.736;2023-04-15T10:14:59;8.50;;;4.95;;
79533;SDS011;68982;52.160;6.736;2023-04-15T10:17:29;7.68;;;4.70;;
79533;SDS011;68982;52.160;6.736;2023-04-15T10:19:59;5.82;;;4.10;;
79533;SDS011;68982;52.160;6.736;2023-04-15T10:22:26;7.25;;;4.65;;
79533;SDS011;68982;52.160;6.736;2023-04-15T10:24:53;6.35;;;3.95;;
79533;SDS011;68982;52.160;6.736;2023-04-15T10:27:20;7.85;;;4.55;;
79533;SDS011;68982;52.160;6.736;2023-04-15T10:29:46;5.22;;;3.53;;
79533;SDS011;68982;52.160;6.736;2023-04-15T10:32:13;6.00;;;3.63;;
79533;SDS011;68982;52.160;6.736;2023-04-15T10:34:39;5.35;;;3.42;;
79533;SDS011;68982;52.160;6.736;2023-04-15T10:37:08;5.55;;;3.55;;
79533;SDS011;68982;52.160;6.736;2023-04-15T10:39:41;6.30;;;3.83;;
79533;SDS011;68982;52.160;6.736;2023-04-15T10:42:14;4.88;;;3.17;;
79533;SDS011;68982;52.160;6.736;2023-04-15T10:44:48;4.00;;;2.78;;
79533;SDS011;68982;52.160;6.736;2023-04-15T10:47:19;9.23;;;3.97;;
79533;SDS011;68982;52.160;6.736;2023-04-15T10:49:46;5.55;;;3.20;;
79533;SDS011;68982;52.160;6.736;2023-04-15T10:52:12;6.05;;;3.58;;
79533;SDS011;68982;52.160;6.736;2023-04-15T10:54:39;7.15;;;3.78;;
79533;SDS011;68982;52.160;6.736;2023-04-15T10:59:37;4.35;;;3.13;;
79533;SDS011;68982;52.160;6.736;2023-04-15T11:05:11;4.15;;;2.72;;
79533;SDS011;68982;52.160;6.736;2023-04-15T11:12:43;6.63;;;3.05;;
79533;SDS011;68982;52.160;6.736;2023-04-15T11:15:26;5.03;;;3.30;;
79533;SDS011;68982;52.160;6.736;2023-04-15T11:17:56;4.68;;;2.70;;
79533;SDS011;68982;52.160;6.736;2023-04-15T11:20:23;5.15;;;2.97;;
79533;SDS011;68982;52.160;6.736;2023-04-15T11:22:52;4.57;;;2.60;;
79533;SDS011;68982;52.160;6.736;2023-04-15T11:25:25;4.53;;;3.00;;
79533;SDS011;68982;52.160;6.736;2023-04-15T11:27:52;5.35;;;2.88;;
79533;SDS011;68982;52.160;6.736;2023-04-15T11:30:22;3.60;;;2.83;;
79533;SDS011;68982;52.160;6.736;2023-04-15T11:32:50;4.28;;;2.60;;
79533;SDS011;68982;52.160;6.736;2023-04-15T11:35:17;3.28;;;2.30;;
79533;SDS011;68982;52.160;6.736;2023-04-15T11:37:46;7.50;;;3.08;;
79533;SDS011;68982;52.160;6.736;2023-04-15T11:40:13;4.05;;;2.70;;
79533;SDS011;68982;52.160;6.736;2023-04-15T11:42:39;5.22;;;2.58;;
79533;SDS011;68982;52.160;6.736;2023-04-15T11:45:08;7.40;;;3.20;;
79533;SDS011;68982;52.160;6.736;2023-04-15T11:47:35;4.22;;;2.67;;
79533;SDS011;68982;52.160;6.736;2023-04-15T11:50:17;4.72;;;2.85;;
79533;SDS011;68982;52.160;6.736;2023-04-15T11:52:53;4.35;;;2.95;;
79533;SDS011;68982;52.160;6.736;2023-04-15T11:55:19;3.97;;;2.60;;
79533;SDS011;68982;52.160;6.736;2023-04-15T11:57:45;5.10;;;3.08;;
79533;SDS011;68982;52.160;6.736;2023-04-15T12:00:11;4.82;;;2.80;;
79533;SDS011;68982;52.160;6.736;2023-04-15T12:02:37;4.28;;;2.85;;
79533;SDS011;68982;52.160;6.736;2023-04-15T12:05:03;4.88;;;3.08;;
79533;SDS011;68982;52.160;6.736;2023-04-15T12:07:29;6.32;;;3.05;;
79533;SDS011;68982;52.160;6.736;2023-04-15T12:09:55;3.53;;;2.60;;
79533;SDS011;68982;52.160;6.736;2023-04-15T12:12:21;3.45;;;2.53;;
79533;SDS011;68982;52.160;6.736;2023-04-15T12:14:51;4.32;;;2.88;;
79533;SDS011;68982;52.160;6.736;2023-04-15T12:17:16;3.90;;;2.47;;
79533;SDS011;68982;52.160;6.736;2023-04-15T12:19:42;4.40;;;2.58;;
79533;SDS011;68982;52.160;6.736;2023-04-15T12:22:10;3.72;;;2.58;;
79533;SDS011;68982;52.160;6.736;2023-04-15T12:24:37;3.13;;;2.10;;
79533;SDS011;68982;52.160;6.736;2023-04-15T12:27:07;3.08;;;2.17;;
79533;SDS011;68982;52.160;6.736;2023-04-15T12:29:34;3.30;;;2.20;;
79533;SDS011;68982;52.160;6.736;2023-04-15T12:34:31;3.47;;;2.40;;
79533;SDS011;68982;52.160;6.736;2023-04-15T12:36:59;3.90;;;2.35;;
79533;SDS011;68982;52.160;6.736;2023-04-15T12:39:27;5.15;;;2.70;;
79533;SDS011;68982;52.160;6.736;2023-04-15T12:41:56;5.15;;;3.13;;
79533;SDS011;68982;52.160;6.736;2023-04-15T12:44:23;6.95;;;4.30;;
79533;SDS011;68982;52.160;6.736;2023-04-15T12:46:49;5.97;;;3.92;;
79533;SDS011;68982;52.160;6.736;2023-04-15T12:51:44;4.30;;;2.95;;
79533;SDS011;68982;52.160;6.736;2023-04-15T12:54:11;5.38;;;3.03;;
79533;SDS011;68982;52.160;6.736;2023-04-15T12:56:36;5.63;;;2.80;;
79533;SDS011;68982;52.160;6.736;2023-04-15T12:59:01;3.53;;;2.53;;
79533;SDS011;68982;52.160;6.736;2023-04-15T13:01:27;4.13;;;2.50;;
79533;SDS011;68982;52.160;6.736;2023-04-15T13:03:52;3.85;;;2.58;;
79533;SDS011;68982;52.160;6.736;2023-04-15T13:06:18;4.68;;;2.88;;
79533;SDS011;68982;52.160;6.736;2023-04-15T13:08:43;6.30;;;2.65;;
79533;SDS011;68982;52.160;6.736;2023-04-15T13:11:09;4.22;;;2.50;;
79533;SDS011;68982;52.160;6.736;2023-04-15T13:13:34;3.22;;;2.40;;
79533;SDS011;68982;52.160;6.736;2023-04-15T13:15:59;3.65;;;2.85;;
79533;SDS011;68982;52.160;6.736;2023-04-15T13:18:25;5.97;;;2.38;;
79533;SDS011;68982;52.160;6.736;2023-04-15T13:20:50;3.95;;;2.88;;
79533;SDS011;68982;52.160;6.736;2023-04-15T13:23:16;5.55;;;2.95;;
79533;SDS011;68982;52.160;6.736;2023-04-15T13:25:41;3.67;;;2.60;;
79533;SDS011;68982;52.160;6.736;2023-04-15T13:28:07;4.20;;;2.55;;
79533;SDS011;68982;52.160;6.736;2023-04-15T13:30:32;4.03;;;2.35;;
79533;SDS011;68982;52.160;6.736;2023-04-15T13:32:58;5.83;;;2.40;;
79533;SDS011;68982;52.160;6.736;2023-04-15T13:35:23;4.28;;;2.38;;
79533;SDS011;68982;52.160;6.736;2023-04-15T13:37:48;5.53;;;3.38;;
79533;SDS011;68982;52.160;6.736;2023-04-15T13:40:14;5.05;;;3.25;;
79533;SDS011;68982;52.160;6.736;2023-04-15T13:42:40;4.75;;;3.28;;
79533;SDS011;68982;52.160;6.736;2023-04-15T13:45:06;5.03;;;3.25;;
79533;SDS011;68982;52.160;6.736;2023-04-15T13:47:32;6.68;;;3.30;;
79533;SDS011;68982;52.160;6.736;2023-04-15T13:49:57;7.88;;;3.20;;
79533;SDS011;68982;52.160;6.736;2023-04-15T13:52:23;6.10;;;2.90;;
79533;SDS011;68982;52.160;6.736;2023-04-15T13:54:48;5.00;;;3.28;;
79533;SDS011;68982;52.160;6.736;2023-04-15T13:57:14;4.68;;;2.75;;
79533;SDS011;68982;52.160;6.736;2023-04-15T13:59:39;9.90;;;3.65;;
79533;SDS011;68982;52.160;6.736;2023-04-15T14:02:05;5.45;;;3.17;;
79533;SDS011;68982;52.160;6.736;2023-04-15T14:04:30;6.95;;;3.22;;
79533;SDS011;68982;52.160;6.736;2023-04-15T14:06:56;5.95;;;3.13;;
79533;SDS011;68982;52.160;6.736;2023-04-15T14:09:22;7.43;;;3.13;;
79533;SDS011;68982;52.160;6.736;2023-04-15T14:11:48;5.85;;;2.92;;
79533;SDS011;68982;52.160;6.736;2023-04-15T14:14:17;4.68;;;2.42;;
79533;SDS011;68982;52.160;6.736;2023-04-15T14:16:42;7.18;;;2.67;;
79533;SDS011;68982;52.160;6.736;2023-04-15T14:19:07;4.75;;;2.60;;
79533;SDS011;68982;52.160;6.736;2023-04-15T14:21:33;7.70;;;3.45;;
79533;SDS011;68982;52.160;6.736;2023-04-15T14:23:58;4.37;;;3.03;;
79533;SDS011;68982;52.160;6.736;2023-04-15T14:26:25;4.50;;;3.05;;
79533;SDS011;68982;52.160;6.736;2023-04-15T14:28:50;6.47;;;2.92;;
79533;SDS011;68982;52.160;6.736;2023-04-15T14:31:16;5.45;;;3.40;;
79533;SDS011;68982;52.160;6.736;2023-04-15T14:33:43;7.50;;;4.22;;
79533;SDS011;68982;52.160;6.736;2023-04-15T14:36:09;6.03;;;3.30;;
79533;SDS011;68982;52.160;6.736;2023-04-15T14:38:34;6.28;;;4.35;;
79533;SDS011;68982;52.160;6.736;2023-04-15T14:41:06;6.00;;;3.03;;
79533;SDS011;68982;52.160;6.736;2023-04-15T14:43:32;4.60;;;2.90;;
79533;SDS011;68982;52.160;6.736;2023-04-15T14:46:00;6.20;;;2.63;;
79533;SDS011;68982;52.160;6.736;2023-04-15T14:48:26;5.07;;;2.40;;
79533;SDS011;68982;52.160;6.736;2023-04-15T14:50:51;4.97;;;2.60;;
79533;SDS011;68982;52.160;6.736;2023-04-15T14:53:17;4.25;;;2.95;;